sensor_id;sensor_type;location;lat;lon;timestamp;pressure;altitude;pressure_sealevel;temperature;humidity
9415;BME280;4746;35.664;139.738;2023-04-02T00:11:46;100646.03;;;22.76;38.49
9415;BME280;4746;35.664;139.738;2023-04-02T00:14:32;100648.81;;;22.96;38.51
9415;BME280;4746;35.664;139.738;2023-04-02T00:17:04;100648.50;;;23.05;38.47
9415;BME280;4746;35.664;139.738;2023-04-02T00:19:59;100653.09;;;23.21;38.50
9415;BME280;4746;35.664;139.738;2023-04-02T00:22:31;100646.78;;;23.26;38.18
9415;BME280;4746;35.664;139.738;2023-04-02T00:25:10;100651.75;;;23.34;38.17
9415;BME280;4746;35.664;139.738;2023-04-02T00:27:39;100644.97;;;23.28;37.75
9415;BME280;4746;35.664;139.738;2023-04-02T00:30:11;100646.22;;;23.41;38.37
9415;BME280;4746;35.664;139.738;2023-04-02T00:32:39;100649.75;;;23.40;38.11
9415;BME280;4746;35.664;139.738;2023-04-02T00:35:35;100648.53;;;23.49;37.72
9415;BME280;4746;35.664;139.738;2023-04-02T00:38:05;100648.75;;;23.43;38.04
9415;BME280;4746;35.664;139.738;2023-04-02T00:40:33;100644.28;;;23.46;37.83
9415;BME280;4746;35.664;139.738;2023-04-02T00:43:01;100647.72;;;23.47;38.01
9415;BME280;4746;35.664;139.738;2023-04-02T00:45:36;100642.47;;;23.48;38.35
9415;BME280;4746;35.664;139.738;2023-04-02T00:51:30;100627.19;;;23.59;38.05
9415;BME280;4746;35.664;139.738;2023-04-02T00:54:04;100621.28;;;23.54;38.29
9415;BME280;4746;35.664;139.738;2023-04-02T00:56:40;100625.31;;;23.63;38.08
9415;BME280;4746;35.664;139.738;2023-04-02T01:02:21;100616.91;;;23.55;38.46
9415;BME280;4746;35.664;139.738;2023-04-02T01:05:01;100622.03;;;23.58;38.06
9415;BME280;4746;35.664;139.738;2023-04-02T01:16:10;100632.66;;;23.76;38.37
9415;BME280;4746;35.664;139.738;2023-04-02T01:22:21;100611.38;;;24.05;38.23
9415;BME280;4746;35.664;139.738;2023-04-02T01:24:50;100616.69;;;24.03;38.07
9415;BME280;4746;35.664;139.738;2023-04-02T01:30:44;100619.47;;;24.20;37.56
9415;BME280;4746;35.664;139.738;2023-04-02T01:33:15;100608.09;;;24.20;37.83
9415;BME280;4746;35.664;139.738;2023-04-02T01:35:51;100604.94;;;24.33;38.07
9415;BME280;4746;35.664;139.738;2023-04-02T01:38:33;100600.75;;;24.49;37.93
9415;BME280;4746;35.664;139.738;2023-04-02T01:41:13;100601.56;;;24.51;38.00
9415;BME280;4746;35.664;139.738;2023-04-02T01:44:02;100588.66;;;24.47;37.89
9415;BME280;4746;35.664;139.738;2023-04-02T01:46:35;100592.59;;;24.35;38.00
9415;BME280;4746;35.664;139.738;2023-04-02T01:49:18;100607.84;;;24.26;38.24
9415;BME280;4746;35.664;139.738;2023-04-02T01:51:51;100607.78;;;24.07;38.70
9415;BME280;4746;35.664;139.738;2023-04-02T01:54:22;100601.16;;;23.99;38.17
9415;BME280;4746;35.664;139.738;2023-04-02T01:56:51;100586.59;;;23.92;38.08
9415;BME280;4746;35.664;139.738;2023-04-02T01:59:20;100591.03;;;23.90;38.58
9415;BME280;4746;35.664;139.738;2023-04-02T02:02:11;100582.66;;;24.03;38.54
9415;BME280;4746;35.664;139.738;2023-04-02T02:04:40;100577.19;;;24.08;38.01
9415;BME280;4746;35.664;139.738;2023-04-02T02:07:18;100574.72;;;24.05;38.20
9415;BME280;4746;35.664;139.738;2023-04-02T02:09:47;100575.63;;;24.04;38.29
9415;BME280;4746;35.664;139.738;2023-04-02T02:12:16;100570.06;;;23.91;38.50
9415;BME280;4746;35.664;139.738;2023-04-02T02:14:49;100560.16;;;23.78;39.19
9415;BME280;4746;35.664;139.738;2023-04-02T02:17:29;100569.69;;;23.58;39.06
9415;BME280;4746;35.664;139.738;2023-04-02T02:20:02;100562.31;;;23.24;39.97
9415;BME280;4746;35.664;139.738;2023-04-02T02:22:38;100569.25;;;23.03;40.21
9415;BME280;4746;35.664;139.738;2023-04-02T02:25:20;100573.97;;;22.93;40.08
9415;BME280;4746;35.664;139.738;2023-04-02T02:28:13;100562.56;;;22.94;40.64
9415;BME280;4746;35.664;139.738;2023-04-02T02:31:16;100558.75;;;23.04;40.74
9415;BME280;4746;35.664;139.738;2023-04-02T02:33:52;100565.41;;;23.12;40.69
9415;BME280;4746;35.664;139.738;2023-04-02T02:37:05;100563.78;;;23.31;40.50
9415;BME280;4746;35.664;139.738;2023-04-02T02:39:41;100554.22;;;23.30;40.07
9415;BME280;4746;35.664;139.738;2023-04-02T02:42:38;100540.78;;;23.39;40.09
9415;BME280;4746;35.664;139.738;2023-04-02T02:45:24;100540.19;;;23.33;39.76
9415;BME280;4746;35.664;139.738;2023-04-02T02:47:55;100530.13;;;23.22;39.82
9415;BME280;4746;35.664;139.738;2023-04-02T02:50:28;100525.88;;;23.20;40.03
9415;BME280;4746;35.664;139.738;2023-04-02T02:53:03;100542.53;;;23.17;40.18
9415;BME280;4746;35.664;139.738;2023-04-02T02:55:34;100542.59;;;23.16;39.90
9415;BME280;4746;35.664;139.738;2023-04-02T02:58:09;100537.41;;;23.14;39.46
9415;BME280;4746;35.664;139.738;2023-04-02T03:00:39;100545.00;;;23.22;39.79
9415;BME280;4746;35.664;139.738;2023-04-02T03:03:23;100532.69;;;23.45;39.89
9415;BME280;4746;35.664;139.738;2023-04-02T03:05:59;100526.91;;;23.59;39.64
9415;BME280;4746;35.664;139.738;2023-04-02T03:08:54;100534.69;;;23.81;39.24
9415;BME280;4746;35.664;139.738;2023-04-02T03:14:54;100526.91;;;23.80;38.53
9415;BME280;4746;35.664;139.738;2023-04-02T03:17:50;100517.81;;;23.88;38.55
9415;BME280;4746;35.664;139.738;2023-04-02T03:20:45;100516.31;;;24.03;38.69
9415;BME280;4746;35.664;139.738;2023-04-02T03:23:30;100522.53;;;24.00;38.66
9415;BME280;4746;35.664;139.738;2023-04-02T03:26:17;100518.81;;;24.06;38.55
9415;BME280;4746;35.664;139.738;2023-04-02T03:29:01;100516.31;;;24.03;38.13
9415;BME280;4746;35.664;139.738;2023-04-02T03:32:25;100523.53;;;23.98;37.92
9415;BME280;4746;35.664;139.738;2023-04-02T03:34:40;100524.28;;;23.80;38.46
9415;BME280;4746;35.664;139.738;2023-04-02T03:37:25;100521.91;;;23.74;38.25
9415;BME280;4746;35.664;139.738;2023-04-02T03:40:25;100520.91;;;23.78;38.13
9415;BME280;4746;35.664;139.738;2023-04-02T03:43:18;100520.34;;;23.90;38.07
9415;BME280;4746;35.664;139.738;2023-04-02T03:46:21;100519.06;;;24.00;38.37
9415;BME280;4746;35.664;139.738;2023-04-02T03:48:48;100523.78;;;24.12;37.81
9415;BME280;4746;35.664;139.738;2023-04-02T03:51:29;100515.13;;;24.30;37.88
9415;BME280;4746;35.664;139.738;2023-04-02T03:53:58;100513.56;;;24.26;37.54
9415;BME280;4746;35.664;139.738;2023-04-02T03:56:32;100523.75;;;24.32;37.18
9415;BME280;4746;35.664;139.738;2023-04-02T03:59:49;100521.81;;;24.37;36.95
9415;BME280;4746;35.664;139.738;2023-04-02T04:02:34;100521.28;;;24.49;37.43
9415;BME280;4746;35.664;139.738;2023-04-02T04:05:07;100520.47;;;24.66;37.10
9415;BME280;4746;35.664;139.738;2023-04-02T04:07:45;100528.84;;;24.74;36.80
9415;BME280;4746;35.664;139.738;2023-04-02T04:10:24;100517.00;;;24.84;36.32
9415;BME280;4746;35.664;139.738;2023-04-02T04:13:07;100518.78;;;25.02;36.58
9415;BME280;4746;35.664;139.738;2023-04-02T04:15:51;100529.22;;;25.22;35.67
9415;BME280;4746;35.664;139.738;2023-04-02T04:19:02;100516.63;;;25.47;35.60
9415;BME280;4746;35.664;139.738;2023-04-02T04:21:32;100510.63;;;25.62;35.24
9415;BME280;4746;35.664;139.738;2023-04-02T04:24:28;100506.19;;;25.97;34.53
9415;BME280;4746;35.664;139.738;2023-04-02T04:27:07;100509.59;;;26.16;34.29
9415;BME280;4746;35.664;139.738;2023-04-02T04:33:37;100503.81;;;26.74;33.61
9415;BME280;4746;35.664;139.738;2023-04-02T04:36:21;100502.19;;;27.20;32.96
9415;BME280;4746;35.664;139.738;2023-04-02T04:38:59;100492.09;;;27.72;32.35
9415;BME280;4746;35.664;139.738;2023-04-02T04:41:38;100494.81;;;28.00;31.68
9415;BME280;4746;35.664;139.738;2023-04-02T04:44:23;100488.66;;;28.29;31.49
9415;BME280;4746;35.664;139.738;2023-04-02T04:47:06;100486.06;;;28.57;30.94
9415;BME280;4746;35.664;139.738;2023-04-02T04:51:07;100486.16;;;28.83;30.62
9415;BME280;4746;35.664;139.738;2023-04-02T04:53:20;100470.38;;;29.09;30.48
9415;BME280;4746;35.664;139.738;2023-04-02T04:55:55;100470.72;;;29.82;29.81
9415;BME280;4746;35.664;139.738;2023-04-02T04:58:44;100467.41;;;30.67;28.56
9415;BME280;4746;35.664;139.738;2023-04-02T05:01:35;100466.53;;;30.67;28.34
9415;BME280;4746;35.664;139.738;2023-04-02T05:13:06;100486.13;;;29.76;28.08
9415;BME280;4746;35.664;139.738;2023-04-02T05:18:46;100479.00;;;29.90;28.49
9415;BME280;4746;35.664;139.738;2023-04-02T05:21:36;100474.81;;;30.50;27.33
9415;BME280;4746;35.664;139.738;2023-04-02T05:24:42;100471.44;;;30.48;27.01
9415;BME280;4746;35.664;139.738;2023-04-02T05:27:42;100471.75;;;30.06;27.46
9415;BME280;4746;35.664;139.738;2023-04-02T05:30:53;100468.25;;;29.93;27.81
9415;BME280;4746;35.664;139.738;2023-04-02T05:33:34;100462.00;;;29.55;28.06
9415;BME280;4746;35.664;139.738;2023-04-02T05:36:10;100460.63;;;29.10;27.96
9415;BME280;4746;35.664;139.738;2023-04-02T05:38:44;100462.31;;;28.57;28.86
9415;BME280;4746;35.664;139.738;2023-04-02T05:41:31;100461.41;;;28.14;29.46
9415;BME280;4746;35.664;139.738;2023-04-02T05:47:15;100476.19;;;27.44;30.30
9415;BME280;4746;35.664;139.738;2023-04-02T05:52:41;100473.53;;;26.83;30.57
9415;BME280;4746;35.664;139.738;2023-04-02T05:58:46;100472.31;;;26.25;31.34
9415;BME280;4746;35.664;139.738;2023-04-02T06:04:55;100485.97;;;25.83;32.26
9415;BME280;4746;35.664;139.738;2023-04-02T06:07:53;100481.44;;;25.68;32.36
9415;BME280;4746;35.664;139.738;2023-04-02T06:10:28;100482.53;;;25.47;33.01
9415;BME280;4746;35.664;139.738;2023-04-02T06:13:09;100475.03;;;25.56;33.05
9415;BME280;4746;35.664;139.738;2023-04-02T06:15:41;100473.34;;;27.03;31.82
9415;BME280;4746;35.664;139.738;2023-04-02T06:18:18;100473.81;;;29.50;29.45
9415;BME280;4746;35.664;139.738;2023-04-02T06:20:46;100476.25;;;30.91;27.01
9415;BME280;4746;35.664;139.738;2023-04-02T06:23:53;100483.38;;;30.78;27.40
9415;BME280;4746;35.664;139.738;2023-04-02T06:29:10;100477.47;;;31.34;26.75
9415;BME280;4746;35.664;139.738;2023-04-02T06:32:01;100484.81;;;33.20;24.55
9415;BME280;4746;35.664;139.738;2023-04-02T06:34:31;100487.47;;;34.35;23.09
9415;BME280;4746;35.664;139.738;2023-04-02T06:39:48;100491.28;;;35.78;21.67
9415;BME280;4746;35.664;139.738;2023-04-02T06:42:33;100481.63;;;37.49;20.29
9415;BME280;4746;35.664;139.738;2023-04-02T06:45:04;100482.16;;;38.05;19.67
9415;BME280;4746;35.664;139.738;2023-04-02T06:47:48;100488.78;;;38.43;19.34
9415;BME280;4746;35.664;139.738;2023-04-02T06:50:26;100487.38;;;37.71;19.75
9415;BME280;4746;35.664;139.738;2023-04-02T06:53:04;100486.47;;;36.10;20.77
9415;BME280;4746;35.664;139.738;2023-04-02T06:58:17;100481.91;;;33.34;22.86
9415;BME280;4746;35.664;139.738;2023-04-02T07:00:48;100483.50;;;32.28;23.42
9415;BME280;4746;35.664;139.738;2023-04-02T07:03:30;100474.59;;;31.37;24.57
9415;BME280;4746;35.664;139.738;2023-04-02T07:06:01;100475.97;;;30.58;25.74
9415;BME280;4746;35.664;139.738;2023-04-02T07:08:29;100474.03;;;29.86;25.93
9415;BME280;4746;35.664;139.738;2023-04-02T07:10:57;100466.94;;;29.21;26.65
9415;BME280;4746;35.664;139.738;2023-04-02T07:13:25;100476.25;;;28.73;27.73
9415;BME280;4746;35.664;139.738;2023-04-02T07:15:54;100481.56;;;28.15;27.92
9415;BME280;4746;35.664;139.738;2023-04-02T07:18:31;100474.97;;;27.65;28.67
9415;BME280;4746;35.664;139.738;2023-04-02T07:20:59;100480.97;;;27.23;29.22
9415;BME280;4746;35.664;139.738;2023-04-02T07:23:27;100477.44;;;26.91;29.77
9415;BME280;4746;35.664;139.738;2023-04-02T07:25:55;100483.78;;;26.57;30.65
9415;BME280;4746;35.664;139.738;2023-04-02T07:28:24;100492.59;;;26.40;30.68
9415;BME280;4746;35.664;139.738;2023-04-02T07:30:53;100481.22;;;26.23;31.27
9415;BME280;4746;35.664;139.738;2023-04-02T07:33:25;100487.31;;;26.06;31.25
9415;BME280;4746;35.664;139.738;2023-04-02T07:35:56;100487.63;;;26.00;31.60
9415;BME280;4746;35.664;139.738;2023-04-02T07:38:24;100488.72;;;25.96;31.25
9415;BME280;4746;35.664;139.738;2023-04-02T07:40:52;100500.22;;;26.11;31.87
9415;BME280;4746;35.664;139.738;2023-04-02T07:43:19;100498.22;;;26.16;31.41
9415;BME280;4746;35.664;139.738;2023-04-02T07:45:49;100508.91;;;25.96;31.75
9415;BME280;4746;35.664;139.738;2023-04-02T07:48:17;100505.06;;;25.68;32.15
9415;BME280;4746;35.664;139.738;2023-04-02T07:50:44;100506.59;;;25.55;32.10
9415;BME280;4746;35.664;139.738;2023-04-02T07:53:35;100509.28;;;26.22;31.74
9415;BME280;4746;35.664;139.738;2023-04-02T07:56:08;100499.06;;;26.98;30.83
9415;BME280;4746;35.664;139.738;2023-04-02T07:58:39;100504.31;;;26.98;30.56
9415;BME280;4746;35.664;139.738;2023-04-02T08:01:25;100509.38;;;26.38;31.07
9415;BME280;4746;35.664;139.738;2023-04-02T08:03:55;100519.63;;;25.92;31.43
9415;BME280;4746;35.664;139.738;2023-04-02T08:06:24;100520.88;;;25.49;32.38
9415;BME280;4746;35.664;139.738;2023-04-02T08:08:51;100534.56;;;25.21;32.47
9415;BME280;4746;35.664;139.738;2023-04-02T08:11:19;100524.19;;;24.99;33.07
9415;BME280;4746;35.664;139.738;2023-04-02T08:13:47;100525.94;;;24.80;33.24
9415;BME280;4746;35.664;139.738;2023-04-02T08:16:15;100540.16;;;24.56;33.41
9415;BME280;4746;35.664;139.738;2023-04-02T08:18:42;100535.13;;;24.32;34.07
9415;BME280;4746;35.664;139.738;2023-04-02T08:21:11;100536.88;;;24.12;33.88
9415;BME280;4746;35.664;139.738;2023-04-02T08:23:40;100525.59;;;23.90;34.09
9415;BME280;4746;35.664;139.738;2023-04-02T08:26:08;100526.78;;;23.62;34.66
9415;BME280;4746;35.664;139.738;2023-04-02T08:28:36;100532.81;;;23.42;35.14
9415;BME280;4746;35.664;139.738;2023-04-02T08:31:03;100532.56;;;23.27;35.06
9415;BME280;4746;35.664;139.738;2023-04-02T08:33:31;100532.66;;;23.03;35.72
9415;BME280;4746;35.664;139.738;2023-04-02T08:35:58;100545.47;;;22.86;36.06
9415;BME280;4746;35.664;139.738;2023-04-02T08:38:26;100551.28;;;22.71;36.21
9415;BME280;4746;35.664;139.738;2023-04-02T08:41:00;100557.03;;;22.57;36.50
9415;BME280;4746;35.664;139.738;2023-04-02T08:46:47;100566.94;;;22.22;37.13
9415;BME280;4746;35.664;139.738;2023-04-02T08:49:43;100574.50;;;22.05;37.84
9415;BME280;4746;35.664;139.738;2023-04-02T08:52:31;100571.66;;;21.87;37.79
9415;BME280;4746;35.664;139.738;2023-04-02T08:55:03;100573.34;;;21.62;38.49
9415;BME280;4746;35.664;139.738;2023-04-02T08:57:53;100581.78;;;21.43;38.65
9415;BME280;4746;35.664;139.738;2023-04-02T09:00:41;100576.41;;;21.20;38.83
9415;BME280;4746;35.664;139.738;2023-04-02T09:03:17;100583.06;;;21.01;38.60
9415;BME280;4746;35.664;139.738;2023-04-02T09:05:47;100593.16;;;20.83;39.64
9415;BME280;4746;35.664;139.738;2023-04-02T09:08:23;100611.66;;;20.72;40.20
9415;BME280;4746;35.664;139.738;2023-04-02T09:13:41;100606.13;;;20.52;39.94
9415;BME280;4746;35.664;139.738;2023-04-02T09:16:17;100602.06;;;20.42;40.37
9415;BME280;4746;35.664;139.738;2023-04-02T09:18:51;100610.13;;;20.33;40.69
9415;BME280;4746;35.664;139.738;2023-04-02T09:23:58;100611.34;;;20.19;40.77
9415;BME280;4746;35.664;139.738;2023-04-02T09:26:32;100614.94;;;20.15;40.66
9415;BME280;4746;35.664;139.738;2023-04-02T09:32:38;100632.66;;;20.00;40.37
9415;BME280;4746;35.664;139.738;2023-04-02T09:37:45;100634.75;;;19.84;40.93
9415;BME280;4746;35.664;139.738;2023-04-02T09:40:26;100641.69;;;19.84;40.78
9415;BME280;4746;35.664;139.738;2023-04-02T09:43:17;100627.84;;;19.83;41.13
9415;BME280;4746;35.664;139.738;2023-04-02T09:46:24;100638.28;;;19.82;40.90
9415;BME280;4746;35.664;139.738;2023-04-02T09:48:59;100654.88;;;19.76;40.94
9415;BME280;4746;35.664;139.738;2023-04-02T09:51:30;100654.16;;;19.71;41.26
9415;BME280;4746;35.664;139.738;2023-04-02T09:56:35;100661.34;;;19.59;41.23
9415;BME280;4746;35.664;139.738;2023-04-02T09:59:17;100660.53;;;19.57;41.42
9415;BME280;4746;35.664;139.738;2023-04-02T10:04:46;100664.91;;;19.55;41.33
9415;BME280;4746;35.664;139.738;2023-04-02T10:07:42;100667.56;;;19.53;41.28
9415;BME280;4746;35.664;139.738;2023-04-02T10:13:12;100683.16;;;19.52;41.51
9415;BME280;4746;35.664;139.738;2023-04-02T10:16:19;100689.22;;;19.52;41.46
9415;BME280;4746;35.664;139.738;2023-04-02T10:19:12;100692.81;;;19.47;41.54
9415;BME280;4746;35.664;139.738;2023-04-02T10:21:45;100698.97;;;19.43;42.33
9415;BME280;4746;35.664;139.738;2023-04-02T10:24:18;100703.28;;;19.44;42.24
9415;BME280;4746;35.664;139.738;2023-04-02T10:29:32;100687.72;;;19.41;42.00
9415;BME280;4746;35.664;139.738;2023-04-02T10:32:59;100693.84;;;19.39;41.76
9415;BME280;4746;35.664;139.738;2023-04-02T10:40:45;100702.28;;;19.07;41.90
9415;BME280;4746;35.664;139.738;2023-04-02T10:47:07;100718.13;;;18.94;42.02
9415;BME280;4746;35.664;139.738;2023-04-02T10:49:57;100726.88;;;18.88;42.33
9415;BME280;4746;35.664;139.738;2023-04-02T10:55:46;100730.41;;;18.84;42.25
9415;BME280;4746;35.664;139.738;2023-04-02T10:58:25;100722.66;;;18.81;42.34
9415;BME280;4746;35.664;139.738;2023-04-02T11:01:05;100735.66;;;18.81;42.45
9415;BME280;4746;35.664;139.738;2023-04-02T11:03:45;100732.25;;;18.80;42.20
9415;BME280;4746;35.664;139.738;2023-04-02T11:07:02;100732.28;;;18.78;41.98
9415;BME280;4746;35.664;139.738;2023-04-02T11:09:27;100740.19;;;18.71;42.15
9415;BME280;4746;35.664;139.738;2023-04-02T11:11:59;100736.81;;;18.66;42.34
9415;BME280;4746;35.664;139.738;2023-04-02T11:14:30;100735.09;;;18.65;42.69
9415;BME280;4746;35.664;139.738;2023-04-02T11:17:00;100742.91;;;18.63;42.31
9415;BME280;4746;35.664;139.738;2023-04-02T11:19:33;100742.94;;;18.62;42.29
9415;BME280;4746;35.664;139.738;2023-04-02T11:22:20;100749.81;;;18.64;42.44
9415;BME280;4746;35.664;139.738;2023-04-02T11:24:53;100746.41;;;18.61;42.48
9415;BME280;4746;35.664;139.738;2023-04-02T11:27:28;100743.84;;;18.59;41.86
9415;BME280;4746;35.664;139.738;2023-04-02T11:30:21;100748.13;;;18.62;42.47
9415;BME280;4746;35.664;139.738;2023-04-02T11:32:51;100759.47;;;18.56;42.63
9415;BME280;4746;35.664;139.738;2023-04-02T11:38:02;100765.53;;;18.57;42.36
9415;BME280;4746;35.664;139.738;2023-04-02T11:40:58;100763.84;;;18.53;42.46
9415;BME280;4746;35.664;139.738;2023-04-02T11:48:45;100777.13;;;18.36;42.94
9415;BME280;4746;35.664;139.738;2023-04-02T11:53:55;100781.59;;;18.27;42.55
9415;BME280;4746;35.664;139.738;2023-04-02T11:57:03;100790.22;;;18.29;42.33
9415;BME280;4746;35.664;139.738;2023-04-02T12:09:31;100785.03;;;18.29;42.60
9415;BME280;4746;35.664;139.738;2023-04-02T12:12:16;100793.69;;;18.28;42.59
9415;BME280;4746;35.664;139.738;2023-04-02T12:14:52;100787.66;;;18.26;42.79
9415;BME280;4746;35.664;139.738;2023-04-02T12:17:37;100790.22;;;18.29;42.69
9415;BME280;4746;35.664;139.738;2023-04-02T12:20:20;100798.88;;;18.28;42.70
9415;BME280;4746;35.664;139.738;2023-04-02T12:22:54;100788.53;;;18.25;43.29
9415;BME280;4746;35.664;139.738;2023-04-02T12:30:41;100802.44;;;18.21;42.74
9415;BME280;4746;35.664;139.738;2023-04-02T12:33:33;100795.44;;;18.26;42.93
9415;BME280;4746;35.664;139.738;2023-04-02T12:38:52;100803.19;;;18.27;42.69
9415;BME280;4746;35.664;139.738;2023-04-02T12:41:31;100796.28;;;18.26;42.58
9415;BME280;4746;35.664;139.738;2023-04-02T12:44:10;100808.44;;;18.24;42.67
9415;BME280;4746;35.664;139.738;2023-04-02T12:46:40;100798.06;;;18.24;42.65
9415;BME280;4746;35.664;139.738;2023-04-02T12:49:40;100803.13;;;18.32;42.32
9415;BME280;4746;35.664;139.738;2023-04-02T12:52:17;100804.00;;;18.31;42.19
9415;BME280;4746;35.664;139.738;2023-04-02T12:54:56;100809.16;;;18.34;42.19
9415;BME280;4746;35.664;139.738;2023-04-02T12:57:32;100812.66;;;18.31;42.05
9415;BME280;4746;35.664;139.738;2023-04-02T13:03:15;100805.78;;;18.29;42.02
9415;BME280;4746;35.664;139.738;2023-04-02T13:05:54;100806.69;;;18.25;41.82
9415;BME280;4746;35.664;139.738;2023-04-02T13:08:30;100809.34;;;18.22;41.74
9415;BME280;4746;35.664;139.738;2023-04-02T13:11:05;100805.94;;;18.14;41.69
9415;BME280;4746;35.664;139.738;2023-04-02T13:13:39;100802.50;;;18.13;42.05
9415;BME280;4746;35.664;139.738;2023-04-02T13:16:27;100793.81;;;18.16;41.32
9415;BME280;4746;35.664;139.738;2023-04-02T13:19:28;100807.66;;;18.15;41.57
9415;BME280;4746;35.664;139.738;2023-04-02T13:21:59;100808.69;;;18.05;41.57
9415;BME280;4746;35.664;139.738;2023-04-02T13:24:32;100811.28;;;18.04;41.38
9415;BME280;4746;35.664;139.738;2023-04-02T13:27:03;100813.13;;;17.94;41.57
9415;BME280;4746;35.664;139.738;2023-04-02T13:29:35;100804.53;;;17.92;41.66
9415;BME280;4746;35.664;139.738;2023-04-02T13:32:12;100819.19;;;17.95;41.78
9415;BME280;4746;35.664;139.738;2023-04-02T13:34:40;100814.03;;;17.92;41.76
9415;BME280;4746;35.664;139.738;2023-04-02T13:37:11;100817.50;;;17.89;42.15
9415;BME280;4746;35.664;139.738;2023-04-02T13:39:39;100818.44;;;17.85;42.16
9415;BME280;4746;35.664;139.738;2023-04-02T13:42:11;100825.38;;;17.83;42.15
9415;BME280;4746;35.664;139.738;2023-04-02T13:44:40;100820.28;;;17.79;42.29
9415;BME280;4746;35.664;139.738;2023-04-02T13:47:14;100829.72;;;17.80;42.50
9415;BME280;4746;35.664;139.738;2023-04-02T13:49:41;100815.06;;;17.77;42.21
9415;BME280;4746;35.664;139.738;2023-04-02T13:52:15;100817.66;;;17.77;42.13
9415;BME280;4746;35.664;139.738;2023-04-02T13:54:54;100826.28;;;17.79;42.51
9415;BME280;4746;35.664;139.738;2023-04-02T13:57:24;100827.16;;;17.78;42.55
9415;BME280;4746;35.664;139.738;2023-04-02T13:59:51;100810.75;;;17.79;41.98
9415;BME280;4746;35.664;139.738;2023-04-02T14:02:23;100804.59;;;17.86;42.29
9415;BME280;4746;35.664;139.738;2023-04-02T14:05:26;100804.53;;;17.92;42.26
9415;BME280;4746;35.664;139.738;2023-04-02T14:11:19;100818.41;;;17.87;41.82
9415;BME280;4746;35.664;139.738;2023-04-02T14:14:19;100815.06;;;17.80;42.01
9415;BME280;4746;35.664;139.738;2023-04-02T14:26:26;100814.34;;;17.69;42.24
9415;BME280;4746;35.664;139.738;2023-04-02T14:29:37;100820.38;;;17.68;42.07
9415;BME280;4746;35.664;139.738;2023-04-02T14:32:21;100818.72;;;17.64;42.50
9415;BME280;4746;35.664;139.738;2023-04-02T14:40:58;100821.34;;;17.61;42.96
9415;BME280;4746;35.664;139.738;2023-04-02T14:44:02;100823.91;;;17.61;42.75
9415;BME280;4746;35.664;139.738;2023-04-02T14:46:36;100819.66;;;17.57;42.90
9415;BME280;4746;35.664;139.738;2023-04-02T14:49:29;100823.06;;;17.59;43.46
9415;BME280;4746;35.664;139.738;2023-04-02T14:52:12;100824.88;;;17.54;43.27
9415;BME280;4746;35.664;139.738;2023-04-02T14:54:54;100820.69;;;17.41;43.66
9415;BME280;4746;35.664;139.738;2023-04-02T14:57:36;100835.34;;;17.42;44.07
9415;BME280;4746;35.664;139.738;2023-04-02T15:00:40;100830.19;;;17.41;43.36
9415;BME280;4746;35.664;139.738;2023-04-02T15:06:34;100835.38;;;17.41;44.30
9415;BME280;4746;35.664;139.738;2023-04-02T15:09:37;100823.28;;;17.43;43.75
9415;BME280;4746;35.664;139.738;2023-04-02T15:12:32;100827.63;;;17.40;44.03
9415;BME280;4746;35.664;139.738;2023-04-02T15:16:04;100819.88;;;17.37;44.13
9415;BME280;4746;35.664;139.738;2023-04-02T15:18:14;100814.75;;;17.34;44.60
9415;BME280;4746;35.664;139.738;2023-04-02T15:27:03;100819.13;;;17.29;44.14
9415;BME280;4746;35.664;139.738;2023-04-02T15:32:41;100824.41;;;17.17;44.11
9415;BME280;4746;35.664;139.738;2023-04-02T15:35:46;100820.94;;;17.18;43.77
9415;BME280;4746;35.664;139.738;2023-04-02T15:38:48;100814.94;;;17.14;43.67
9415;BME280;4746;35.664;139.738;2023-04-02T15:42:26;100805.41;;;17.15;44.09
9415;BME280;4746;35.664;139.738;2023-04-02T15:44:38;100816.66;;;17.09;44.11
9415;BME280;4746;35.664;139.738;2023-04-02T15:50:44;100803.81;;;17.02;43.62
9415;BME280;4746;35.664;139.738;2023-04-02T16:02:39;100798.00;;;16.77;43.82
9415;BME280;4746;35.664;139.738;2023-04-02T16:11:35;100792.13;;;16.59;44.22
9415;BME280;4746;35.664;139.738;2023-04-02T16:14:29;100786.94;;;16.62;44.04
9415;BME280;4746;35.664;139.738;2023-04-02T16:17:05;100800.75;;;16.58;44.23
9415;BME280;4746;35.664;139.738;2023-04-02T16:19:48;100795.59;;;16.55;44.22
9415;BME280;4746;35.664;139.738;2023-04-02T16:22:26;100779.25;;;16.52;44.15
9415;BME280;4746;35.664;139.738;2023-04-02T16:25:20;100795.63;;;16.52;44.15
9415;BME280;4746;35.664;139.738;2023-04-02T16:28:32;100781.84;;;16.50;44.18
9415;BME280;4746;35.664;139.738;2023-04-02T16:31:37;100786.19;;;16.47;43.87
9415;BME280;4746;35.664;139.738;2023-04-02T16:37:45;100774.16;;;16.43;44.07
9415;BME280;4746;35.664;139.738;2023-04-02T16:46:21;100795.66;;;16.49;44.37
9415;BME280;4746;35.664;139.738;2023-04-02T16:49:11;100772.38;;;16.49;44.42
9415;BME280;4746;35.664;139.738;2023-04-02T16:52:18;100786.16;;;16.51;43.92
9415;BME280;4746;35.664;139.738;2023-04-02T16:55:15;100783.56;;;16.51;44.03
9415;BME280;4746;35.664;139.738;2023-04-02T16:58:22;100792.19;;;16.53;43.85
9415;BME280;4746;35.664;139.738;2023-04-02T17:01:18;100793.03;;;16.54;44.07
9415;BME280;4746;35.664;139.738;2023-04-02T17:07:06;100792.19;;;16.53;43.84
9415;BME280;4746;35.664;139.738;2023-04-02T17:09:53;100788.69;;;16.54;43.64
9415;BME280;4746;35.664;139.738;2023-04-02T17:12:35;100782.69;;;16.54;43.90
9415;BME280;4746;35.664;139.738;2023-04-02T17:17:43;100782.72;;;16.49;43.50
9415;BME280;4746;35.664;139.738;2023-04-02T17:20:23;100788.75;;;16.51;43.50
9415;BME280;4746;35.664;139.738;2023-04-02T17:22:52;100790.50;;;16.48;43.43
9415;BME280;4746;35.664;139.738;2023-04-02T17:25:33;100784.44;;;16.49;43.45